Terminal Aerodrome Forecast
Issued by NWS Flagstaff, AZ

Home | Current Version | Previous Version | Text Only | Print | Product List | Glossary On
Versions: 1 2 3 4 5 6 7 8 9 10 11 12 13 14 15 16
000
FTUS45 KFGZ 022337
TAFFLG
TAF
KFLG 022337Z 0300/0324 28007KT P6SM SCT070 SCT090 BKN200
      TEMPO 0300/0301 VRB10G20KT 5SM TSRA BKN060CB
     FM030200 VRB05KT P6SM SCT090
     FM031800 23010G15KT P6SM FEW100=

USA.gov is the U.S. government's official web portal to all federal, state and local government web resources and services.